Time;durP1;ratioP1;P1;durP2;ratioP2;P2;SDS_P1;SDS_P2;PMS_P1;PMS_P2;Temp;Humidity;BMP_temperature;BMP_pressure;BME280_temperature;BME280_humidity;BME280_pressure;Samples;Min_cycle;Max_cycle;Signal;HPM_P1;HPM_P2
2023/07/03 00:03:40;;;;;;;13.27;3.10;;;15.50;99.90;;;;;;7358820;32;20092;-56
2023/07/03 00:07:42;;;;;;;17.45;3.35;;;15.50;99.90;;;;;;7351683;32;20627;-56
2023/07/03 00:11:43;;;;;;;12.40;2.67;;;15.50;99.90;;;;;;7351407;32;20103;-56
2023/07/03 00:15:45;;;;;;;14.45;3.40;;;15.40;99.90;;;;;;7355571;32;20104;-56
2023/07/03 00:19:48;;;;;;;20.37;3.35;;;15.40;99.90;;;;;;7345134;32;20104;-57
2023/07/03 00:23:49;;;;;;;17.50;3.28;;;15.30;99.90;;;;;;7351979;32;20459;-56
2023/07/03 00:27:51;;;;;;;15.35;3.70;;;15.30;99.90;;;;;;7352974;32;20236;-56
2023/07/03 00:31:53;;;;;;;14.05;4.10;;;15.20;99.90;;;;;;7353548;32;20198;-56
2023/07/03 00:35:54;;;;;;;17.27;3.78;;;15.10;99.90;;;;;;7356437;32;20238;-55
2023/07/03 00:39:56;;;;;;;13.15;3.42;;;15.10;99.90;;;;;;7355166;32;20304;-55
2023/07/03 00:43:58;;;;;;;13.38;3.10;;;15.00;99.90;;;;;;7356018;32;20563;-56
2023/07/03 00:48:00;;;;;;;14.27;3.12;;;15.00;99.90;;;;;;7348748;32;20192;-55
2023/07/03 00:52:03;;;;;;;13.57;3.50;;;14.90;99.90;;;;;;7357086;32;20491;-55
2023/07/03 00:56:05;;;;;;;13.55;3.30;;;14.90;99.90;;;;;;7357839;32;20120;-56
2023/07/03 01:00:09;;;;;;;20.23;3.95;;;14.80;99.90;;;;;;7340188;32;20125;-56
2023/07/03 01:04:18;;;;;;;17.58;3.60;;;14.80;99.90;;;;;;7353940;32;20100;-56
2023/07/03 01:08:21;;;;;;;15.60;3.50;;;14.70;99.90;;;;;;7354066;32;20115;-56
2023/07/03 01:12:27;;;;;;;18.27;3.83;;;14.70;99.90;;;;;;7350901;32;20298;-56
2023/07/03 01:16:31;;;;;;;14.70;3.72;;;14.60;99.90;;;;;;7357650;32;20115;-56
2023/07/03 01:20:58;;;;;;;18.27;4.15;;;14.60;99.90;;;;;;7350608;32;20122;-56
2023/07/03 01:25:05;;;;;;;16.67;3.60;;;14.50;99.90;;;;;;7349563;32;20112;-56
2023/07/03 01:29:09;;;;;;;18.77;3.58;;;14.40;99.90;;;;;;7357381;32;20095;-56
2023/07/03 01:33:17;;;;;;;13.45;3.05;;;14.40;99.90;;;;;;7352159;32;20234;-56
2023/07/03 01:37:23;;;;;;;20.83;4.22;;;14.40;99.90;;;;;;7343221;32;20096;-56
2023/07/03 01:41:26;;;;;;;16.80;3.67;;;14.40;99.90;;;;;;7352244;32;20145;-55
2023/07/03 01:45:28;;;;;;;18.80;3.55;;;14.30;99.90;;;;;;7351078;32;20115;-56
2023/07/03 01:49:29;;;;;;;15.75;3.58;;;14.20;99.90;;;;;;7352584;32;20122;-56
2023/07/03 01:53:37;;;;;;;24.85;4.10;;;14.20;99.90;;;;;;7355670;32;20099;-56
2023/07/03 01:57:45;;;;;;;14.50;3.97;;;14.30;99.90;;;;;;7350687;32;20310;-56
2023/07/03 02:02:02;;;;;;;15.50;4.10;;;14.20;99.90;;;;;;7356874;32;20168;-56
2023/07/03 02:06:20;;;;;;;15.23;3.30;;;14.20;99.90;;;;;;7348356;32;20150;-56
2023/07/03 02:10:22;;;;;;;12.85;3.30;;;14.10;99.90;;;;;;7342051;32;20240;-57
2023/07/03 02:14:24;;;;;;;18.60;3.22;;;14.10;99.90;;;;;;7356550;32;20582;-56
2023/07/03 02:18:27;;;;;;;15.13;3.55;;;14.10;99.90;;;;;;7356737;32;20130;-56
2023/07/03 02:22:29;;;;;;;14.60;3.33;;;14.10;99.90;;;;;;7356636;32;20131;-56
2023/07/03 02:26:31;;;;;;;13.13;3.40;;;14.10;99.90;;;;;;7355078;32;20432;-56
2023/07/03 02:30:32;;;;;;;20.60;3.78;;;14.20;99.90;;;;;;7342704;32;20206;-56
2023/07/03 02:34:34;;;;;;;17.77;4.00;;;14.10;99.90;;;;;;7348471;32;20580;-56
2023/07/03 02:38:36;;;;;;;18.15;3.72;;;14.20;99.90;;;;;;7335525;32;20164;-55
2023/07/03 02:42:37;;;;;;;18.02;3.53;;;14.20;99.90;;;;;;7348634;32;20289;-55
2023/07/03 02:46:41;;;;;;;17.23;3.72;;;14.20;99.90;;;;;;7343430;32;20103;-57
2023/07/03 02:50:43;;;;;;;18.37;4.32;;;14.20;99.90;;;;;;7354522;32;20234;-56
2023/07/03 02:54:45;;;;;;;19.17;4.28;;;14.20;99.90;;;;;;7346510;32;20190;-56
2023/07/03 02:58:46;;;;;;;16.55;3.83;;;14.20;99.90;;;;;;7360221;32;20222;-56
2023/07/03 03:02:48;;;;;;;20.90;4.15;;;14.20;99.90;;;;;;7342215;32;20103;-56
2023/07/03 03:06:50;;;;;;;19.80;4.62;;;14.20;99.90;;;;;;7347040;32;20166;-55
2023/07/03 03:10:53;;;;;;;16.08;3.67;;;14.20;99.90;;;;;;7342949;32;20214;-56
2023/07/03 03:14:55;;;;;;;22.05;3.58;;;14.10;99.90;;;;;;7360320;32;20122;-56
2023/07/03 03:18:56;;;;;;;18.83;3.80;;;14.10;99.90;;;;;;7354569;32;20111;-56
2023/07/03 03:22:58;;;;;;;19.58;4.20;;;14.10;99.90;;;;;;7353566;32;20128;-56
2023/07/03 03:27:06;;;;;;;17.12;3.75;;;14.20;99.90;;;;;;7360361;32;20193;-56
2023/07/03 03:31:07;;;;;;;;;;;14.20;99.90;;;;;;7359691;32;20127;-56
2023/07/03 03:35:09;;;;;;;16.42;3.50;;;14.10;99.90;;;;;;7342655;32;20388;-55
2023/07/03 03:39:11;;;;;;;25.52;4.00;;;14.10;99.90;;;;;;7343756;32;20103;-56
2023/07/03 03:43:12;;;;;;;19.98;4.53;;;14.00;99.90;;;;;;7356047;32;20500;-56
2023/07/03 03:47:14;;;;;;;15.95;3.53;;;14.00;99.90;;;;;;7346173;32;20684;-56
2023/07/03 03:51:16;;;;;;;15.23;3.78;;;14.00;99.90;;;;;;7355662;32;20114;-56
2023/07/03 03:55:17;;;;;;;20.35;4.00;;;14.10;99.90;;;;;;7342023;32;20123;-55
2023/07/03 03:59:21;;;;;;;18.77;3.80;;;14.10;99.90;;;;;;7356291;32;20115;-55
2023/07/03 04:03:23;;;;;;;23.35;4.18;;;14.10;99.90;;;;;;7346440;32;20298;-56
2023/07/03 04:07:25;;;;;;;23.25;4.70;;;14.10;99.90;;;;;;7347879;32;20137;-56
2023/07/03 04:11:28;;;;;;;18.90;3.72;;;14.10;99.90;;;;;;7355766;32;20158;-56
2023/07/03 04:15:35;;;;;;;26.20;4.70;;;14.10;99.90;;;;;;7359269;32;20125;-56
2023/07/03 04:19:37;;;;;;;19.92;4.22;;;14.20;99.90;;;;;;7357517;32;20111;-56
2023/07/03 04:23:39;;;;;;;25.20;4.68;;;14.30;99.90;;;;;;7358314;32;20248;-57
2023/07/03 04:27:40;;;;;;;20.58;3.95;;;14.40;99.90;;;;;;7351642;32;20099;-56
2023/07/03 04:31:42;;;;;;;22.20;5.15;;;14.50;99.90;;;;;;7344219;32;20119;-57
2023/07/03 04:35:45;;;;;;;19.92;4.10;;;14.60;99.90;;;;;;7347681;32;20106;-56
2023/07/03 04:39:48;;;;;;;24.23;4.60;;;14.60;99.90;;;;;;7351039;32;20189;-56
2023/07/03 04:43:51;;;;;;;20.05;4.40;;;14.70;99.90;;;;;;7348766;32;20191;-56
2023/07/03 04:47:53;;;;;;;17.20;4.32;;;14.70;99.90;;;;;;7357619;32;20217;-57
2023/07/03 04:51:55;;;;;;;22.87;4.45;;;14.80;99.90;;;;;;7351262;32;20599;-57
2023/07/03 04:55:57;;;;;;;21.52;5.20;;;14.80;99.90;;;;;;7357986;32;20126;-57
2023/07/03 05:00:00;;;;;;;22.60;4.37;;;14.80;99.90;;;;;;7346483;32;20171;-57
2023/07/03 05:04:02;;;;;;;25.42;4.85;;;14.90;99.90;;;;;;7351147;32;20470;-58
2023/07/03 05:08:04;;;;;;;21.80;4.43;;;14.90;99.90;;;;;;7343918;32;20442;-56
2023/07/03 05:12:06;;;;;;;20.35;4.87;;;15.00;99.90;;;;;;7342901;32;20191;-57
2023/07/03 05:16:08;;;;;;;19.00;4.45;;;15.10;99.90;;;;;;7354592;32;20170;-56
2023/07/03 05:20:12;;;;;;;21.92;5.28;;;15.10;99.90;;;;;;7344378;32;20107;-57
2023/07/03 05:24:14;;;;;;;23.50;4.53;;;15.20;99.90;;;;;;7346680;32;20130;-57
2023/07/03 05:28:16;;;;;;;21.25;5.15;;;15.30;99.90;;;;;;7340867;32;20138;-56
2023/07/03 05:32:18;;;;;;;25.17;4.43;;;15.30;99.90;;;;;;7343278;32;20474;-56
2023/07/03 05:36:19;;;;;;;21.55;4.65;;;15.20;99.90;;;;;;7347936;32;20162;-56
2023/07/03 05:40:22;;;;;;;21.45;4.45;;;15.30;99.90;;;;;;7345325;32;20147;-56
2023/07/03 05:44:23;;;;;;;29.17;4.87;;;15.30;99.90;;;;;;7344436;32;20325;-56
2023/07/03 05:48:25;;;;;;;29.90;5.15;;;15.30;99.90;;;;;;7345387;32;20111;-56
2023/07/03 05:52:27;;;;;;;20.88;4.30;;;15.30;99.90;;;;;;7352614;32;20135;-56
2023/07/03 05:56:28;;;;;;;20.55;4.32;;;15.50;99.90;;;;;;7348719;32;20302;-57
2023/07/03 06:00:30;;;;;;;19.25;4.68;;;15.50;99.90;;;;;;7348109;32;20115;-57
2023/07/03 06:04:33;;;;;;;22.83;4.32;;;15.50;99.90;;;;;;7345854;32;20137;-58
2023/07/03 06:08:35;;;;;;;26.85;6.07;;;15.40;99.90;;;;;;7351946;32;20180;-57
2023/07/03 06:12:36;;;;;;;22.00;4.35;;;15.40;99.90;;;;;;7349046;32;20154;-57
2023/07/03 06:16:39;;;;;;;18.85;5.35;;;15.40;99.90;;;;;;7355909;32;20107;-57
2023/07/03 06:20:40;;;;;;;24.60;5.03;;;15.50;99.90;;;;;;7360376;32;20182;-57
2023/07/03 06:24:42;;;;;;;20.90;4.90;;;15.60;99.90;;;;;;7348524;32;20179;-56
2023/07/03 06:28:44;;;;;;;27.42;5.25;;;15.70;99.90;;;;;;7359693;32;20145;-57
2023/07/03 06:32:46;;;;;;;23.48;5.10;;;16.20;99.90;;;;;;7353622;32;20203;-57
2023/07/03 06:36:47;;;;;;;22.80;4.95;;;16.50;99.90;;;;;;7356952;32;20632;-57
2023/07/03 06:40:57;;;;;;;19.83;4.40;;;16.70;99.90;;;;;;7357730;32;20111;-57
2023/07/03 06:44:59;;;;;;;19.87;4.87;;;16.50;99.90;;;;;;7351062;32;20127;-57
2023/07/03 06:49:01;;;;;;;19.58;4.53;;;16.40;99.90;;;;;;7351887;32;20190;-56
2023/07/03 06:53:03;;;;;;;19.60;4.70;;;16.40;99.90;;;;;;7353356;32;20301;-57
2023/07/03 06:57:05;;;;;;;24.98;5.05;;;16.50;99.90;;;;;;7353528;32;20138;-57
2023/07/03 07:01:09;;;;;;;22.25;5.05;;;16.60;99.90;;;;;;7350247;32;20142;-57
2023/07/03 07:05:11;;;;;;;19.30;4.95;;;17.20;99.90;;;;;;7351751;32;20107;-57
2023/07/03 07:09:13;;;;;;;21.15;4.47;;;18.10;99.90;;;;;;7347480;32;20276;-57
2023/07/03 07:13:14;;;;;;;25.60;5.70;;;18.80;99.90;;;;;;7358567;32;20207;-57
2023/07/03 07:17:16;;;;;;;21.50;5.07;;;18.70;99.90;;;;;;7352459;32;20134;-57
2023/07/03 07:21:19;;;;;;;17.33;4.60;;;19.30;99.90;;;;;;7349482;32;20273;-58
2023/07/03 07:25:20;;;;;;;18.30;4.62;;;19.60;99.90;;;;;;7353347;32;20298;-57
2023/07/03 07:29:24;;;;;;;18.02;5.20;;;19.40;99.90;;;;;;7351632;32;20453;-57
2023/07/03 07:33:26;;;;;;;16.05;4.28;;;19.60;99.90;;;;;;7351818;32;20195;-57
2023/07/03 07:37:28;;;;;;;21.90;4.90;;;19.20;99.90;;;;;;7358920;32;20123;-57
2023/07/03 07:41:31;;;;;;;21.77;5.35;;;19.00;99.90;;;;;;7359023;32;20179;-57
2023/07/03 07:45:32;;;;;;;16.45;4.57;;;19.00;99.90;;;;;;7359174;32;20516;-57
2023/07/03 07:49:35;;;;;;;20.30;4.53;;;18.70;99.90;;;;;;7344286;32;20107;-57
2023/07/03 07:53:37;;;;;;;15.68;3.92;;;18.40;99.90;;;;;;7347739;32;20119;-56
2023/07/03 07:57:40;;;;;;;19.12;4.53;;;18.20;99.90;;;;;;7354779;32;20189;-57
2023/07/03 08:01:41;;;;;;;14.90;4.30;;;18.40;99.90;;;;;;7344018;32;20165;-57
2023/07/03 08:05:43;;;;;;;19.80;4.50;;;18.80;99.90;;;;;;7349145;32;20321;-57
2023/07/03 08:09:45;;;;;;;17.45;4.25;;;18.50;99.90;;;;;;7352416;32;20508;-57
2023/07/03 08:13:47;;;;;;;18.08;3.97;;;18.40;99.90;;;;;;7339425;32;20130;-58
2023/07/03 08:17:49;;;;;;;16.20;4.37;;;18.80;99.90;;;;;;7350332;32;20560;-57
2023/07/03 08:21:51;;;;;;;18.10;4.50;;;18.80;99.90;;;;;;7348908;32;20131;-56
2023/07/03 08:25:54;;;;;;;16.45;4.40;;;18.50;99.90;;;;;;7341890;32;20720;-57
2023/07/03 08:29:56;;;;;;;17.25;4.72;;;18.40;99.90;;;;;;7349960;32;20118;-58
2023/07/03 08:33:58;;;;;;;14.32;3.95;;;18.40;99.90;;;;;;7354268;32;20714;-57
2023/07/03 08:38:01;;;;;;;12.70;3.62;;;18.00;99.90;;;;;;7357363;32;20130;-57
2023/07/03 08:42:12;;;;;;;16.67;3.90;;;18.20;99.90;;;;;;7350112;32;20107;-57
2023/07/03 08:46:19;;;;;;;14.73;3.45;;;18.90;99.90;;;;;;7345096;32;20131;-57
2023/07/03 08:50:24;;;;;;;12.02;3.25;;;19.90;99.90;;;;;;7344297;32;20163;-57
2023/07/03 08:54:41;;;;;;;9.57;2.78;;;21.00;99.90;;;;;;7351704;32;20125;-57
2023/07/03 08:58:44;;;;;;;13.73;3.33;;;20.90;99.90;;;;;;7341440;32;20177;-57
2023/07/03 09:03:27;;;;;;;12.52;3.12;;;20.80;99.90;;;;;;7349341;32;20123;-57
2023/07/03 09:07:43;;;;;;;15.00;3.30;;;20.40;99.90;;;;;;7336370;32;20095;-57
2023/07/03 09:12:01;;;;;;;15.45;2.97;;;19.80;99.90;;;;;;7349902;32;20285;-58
2023/07/03 09:16:18;;;;;;;13.75;3.08;;;20.00;99.90;;;;;;7357447;32;20266;-57
2023/07/03 09:20:23;;;;;;;10.90;3.17;;;20.60;99.90;;;;;;7345744;32;20191;-57
2023/07/03 09:24:28;;;;;;;9.35;3.20;;;21.00;99.90;;;;;;7357077;32;20522;-57
2023/07/03 09:28:34;;;;;;;10.80;3.03;;;21.00;99.90;;;;;;7350198;32;20175;-57
2023/07/03 09:32:35;;;;;;;14.82;3.92;;;20.50;99.90;;;;;;7351494;32;20520;-57
2023/07/03 09:36:40;;;;;;;11.30;2.78;;;20.10;99.90;;;;;;7352819;32;20223;-56
2023/07/03 09:40:47;;;;;;;15.88;3.62;;;19.80;99.90;;;;;;7347187;32;20139;-57
2023/07/03 09:44:50;;;;;;;11.52;3.28;;;19.80;99.90;;;;;;7357166;32;20183;-56
2023/07/03 09:48:51;;;;;;;13.65;3.33;;;19.90;99.90;;;;;;7350211;32;20166;-57
2023/07/03 09:52:57;;;;;;;11.93;2.92;;;19.80;99.90;;;;;;7353433;32;20278;-59
2023/07/03 09:57:26;;;;;;;9.77;2.60;;;19.90;99.90;;;;;;7354811;32;20095;-57
2023/07/03 10:01:30;;;;;;;10.73;2.85;;;19.90;99.90;;;;;;7336555;32;20302;-57
2023/07/03 10:05:35;;;;;;;;;;;20.10;99.90;;;;;;7353306;32;20453;-58
2023/07/03 10:09:41;;;;;;;8.27;2.58;;;20.30;99.90;;;;;;7341833;32;20094;-57
2023/07/03 10:13:51;;;;;;;9.18;2.75;;;20.30;99.90;;;;;;7352356;32;20123;-56
2023/07/03 10:18:20;;;;;;;9.55;2.50;;;20.00;99.90;;;;;;7352184;32;20222;-56
2023/07/03 10:22:26;;;;;;;14.55;3.15;;;19.90;99.90;;;;;;7345059;32;20100;-56
2023/07/03 10:26:38;;;;;;;12.05;2.30;;;19.80;99.90;;;;;;7340260;32;20166;-57
2023/07/03 10:30:40;;;;;;;10.55;2.75;;;19.60;99.90;;;;;;7340054;32;20204;-57
2023/07/03 10:35:10;;;;;;;11.32;2.60;;;19.40;99.90;;;;;;7339354;32;20186;-57
2023/07/03 10:39:21;;;;;;;12.85;2.75;;;19.20;99.90;;;;;;7350310;32;20570;-58
2023/07/03 10:43:27;;;;;;;8.18;2.45;;;19.00;99.90;;;;;;7342391;32;20111;-57
2023/07/03 10:48:06;;;;;;;6.82;2.40;;;18.90;99.90;;;;;;7351651;32;20174;-57
2023/07/03 10:52:17;;;;;;;9.70;2.80;;;19.10;99.90;;;;;;7341438;32;20111;-57
2023/07/03 10:56:32;;;;;;;7.80;2.80;;;19.10;99.90;;;;;;7343722;32;20157;-57
2023/07/03 11:00:55;;;;;;;11.32;2.90;;;19.70;99.90;;;;;;7354550;32;20157;-57
2023/07/03 11:04:57;;;;;;;12.65;3.00;;;20.10;99.90;;;;;;7344590;32;20145;-58
2023/07/03 11:09:19;;;;;;;7.32;2.50;;;20.40;99.90;;;;;;7359709;32;20133;-58
2023/07/03 11:13:49;;;;;;;11.12;2.70;;;19.90;99.90;;;;;;7353950;32;20161;-57
2023/07/03 11:18:24;;;;;;;7.37;2.95;;;19.70;99.90;;;;;;7349232;32;20148;-57
2023/07/03 11:22:57;;;;;;;14.07;3.10;;;20.00;99.90;;;;;;7348686;32;20108;-56
2023/07/03 11:27:10;;;;;;;13.25;2.90;;;20.40;99.90;;;;;;7348315;32;20480;-57
2023/07/03 11:31:15;;;;;;;8.10;2.92;;;20.70;99.90;;;;;;7343948;32;20107;-56
2023/07/03 11:35:17;;;;;;;14.55;3.95;;;20.80;99.90;;;;;;7352721;32;20502;-56
2023/07/03 11:39:28;;;;;;;13.23;3.10;;;20.60;99.90;;;;;;7353357;32;20528;-57
2023/07/03 11:43:41;;;;;;;10.15;3.25;;;20.50;99.90;;;;;;7351182;32;20820;-57
2023/07/03 11:47:43;;;;;;;11.32;3.42;;;20.30;99.90;;;;;;7349920;32;20106;-56
2023/07/03 11:51:45;;;;;;;13.62;3.58;;;19.60;99.90;;;;;;7349046;32;20175;-56
2023/07/03 11:55:48;;;;;;;12.40;3.05;;;19.20;99.90;;;;;;7354391;32;20203;-55
2023/07/03 11:59:50;;;;;;;14.13;3.05;;;19.00;99.90;;;;;;7345408;32;20112;-58
2023/07/03 12:04:02;;;;;;;10.45;3.40;;;18.80;99.90;;;;;;7350749;32;20110;-58
2023/07/03 12:08:19;;;;;;;7.00;2.92;;;18.80;99.90;;;;;;7358389;32;20127;-57
2023/07/03 12:12:24;;;;;;;9.10;3.55;;;18.90;99.90;;;;;;7347725;32;20146;-58
2023/07/03 12:16:30;;;;;;;11.70;3.40;;;18.80;99.90;;;;;;7345417;32;20119;-57
2023/07/03 12:20:31;;;;;;;14.25;2.97;;;18.90;99.90;;;;;;7357525;32;20108;-57
2023/07/03 12:24:33;;;;;;;10.73;3.47;;;18.80;99.90;;;;;;7346515;32;20302;-57
2023/07/03 12:28:36;;;;;;;13.13;3.65;;;19.30;99.90;;;;;;7348576;32;20108;-57
2023/07/03 12:32:38;;;;;;;12.73;3.70;;;20.20;99.90;;;;;;7353927;32;20131;-58
2023/07/03 12:36:40;;;;;;;14.68;3.67;;;21.10;99.90;;;;;;7351172;32;20176;-57
2023/07/03 12:40:48;;;;;;;11.15;3.45;;;21.60;99.90;;;;;;7347423;32;20694;-58
2023/07/03 12:44:52;;;;;;;11.70;3.47;;;21.80;99.90;;;;;;7348844;32;20132;-58
2023/07/03 12:49:06;;;;;;;9.77;3.75;;;21.30;99.90;;;;;;7349627;32;20277;-58
2023/07/03 12:53:10;;;;;;;11.12;3.40;;;21.10;99.90;;;;;;7347890;32;20120;-57
2023/07/03 12:57:12;;;;;;;11.23;3.70;;;20.90;99.90;;;;;;7355593;32;20103;-57
2023/07/03 13:01:14;;;;;;;9.85;3.62;;;20.40;99.90;;;;;;7347838;32;20220;-57
2023/07/03 13:05:22;;;;;;;10.73;4.15;;;20.00;99.90;;;;;;7344723;32;20104;-57
2023/07/03 13:09:26;;;;;;;9.07;3.70;;;19.80;99.90;;;;;;7338176;32;20310;-57
2023/07/03 13:13:28;;;;;;;14.32;4.30;;;20.00;99.90;;;;;;7349551;32;20107;-57
2023/07/03 13:17:30;;;;;;;12.95;3.95;;;20.90;99.90;;;;;;7349889;32;20161;-57
2023/07/03 13:21:34;;;;;;;12.75;3.37;;;21.30;99.90;;;;;;7344091;32;20119;-58
2023/07/03 13:25:38;;;;;;;12.93;3.12;;;21.50;99.90;;;;;;7354415;32;20130;-57
2023/07/03 13:29:40;;;;;;;14.77;3.20;;;21.60;99.90;;;;;;7345909;32;20277;-58
2023/07/03 13:33:44;;;;;;;11.98;3.28;;;21.30;99.90;;;;;;7351265;32;20115;-57
2023/07/03 13:37:45;;;;;;;9.02;3.47;;;21.00;99.90;;;;;;7349658;32;20168;-57
2023/07/03 13:41:48;;;;;;;13.00;3.55;;;21.30;99.90;;;;;;7344075;32;20436;-57
2023/07/03 13:45:55;;;;;;;12.32;3.60;;;21.70;99.90;;;;;;7356615;32;20119;-57
2023/07/03 13:49:57;;;;;;;13.40;3.67;;;21.70;99.90;;;;;;7346414;32;20127;-57
2023/07/03 13:53:59;;;;;;;14.23;3.60;;;22.00;99.90;;;;;;7346379;32;20217;-58
2023/07/03 13:58:13;;;;;;;13.02;3.40;;;22.00;99.90;;;;;;7345895;32;20111;-57
2023/07/03 14:02:15;;;;;;;8.25;2.47;;;21.60;99.90;;;;;;7346145;32;20152;-58
2023/07/03 14:06:17;;;;;;;9.15;2.83;;;21.20;99.90;;;;;;7356012;32;20198;-57
2023/07/03 14:10:19;;;;;;;10.00;2.92;;;20.70;99.90;;;;;;7349601;32;20152;-58
2023/07/03 14:14:21;;;;;;;13.25;3.10;;;20.80;99.90;;;;;;7356478;32;20202;-58
2023/07/03 14:18:22;;;;;;;10.88;3.25;;;21.00;99.90;;;;;;7350226;32;20185;-57
2023/07/03 14:22:24;;;;;;;8.10;3.10;;;21.00;98.80;;;;;;7356009;32;20397;-57
2023/07/03 14:26:26;;;;;;;12.15;3.30;;;21.00;97.70;;;;;;7352029;32;20156;-57
2023/07/03 14:30:28;;;;;;;11.27;2.85;;;20.90;99.80;;;;;;7346513;32;20119;-57
2023/07/03 14:34:29;;;;;;;7.75;2.70;;;21.00;98.70;;;;;;7348829;32;20119;-58
2023/07/03 14:38:31;;;;;;;11.55;2.97;;;21.30;97.70;;;;;;7352785;32;20171;-60
2023/07/03 14:42:33;;;;;;;8.70;3.05;;;21.30;99.90;;;;;;7360498;32;20123;-58
2023/07/03 14:46:34;;;;;;;11.45;3.42;;;22.10;97.60;;;;;;7360452;32;20611;-57
2023/07/03 14:50:36;;;;;;;14.63;3.42;;;22.10;96.10;;;;;;7353966;32;20187;-57
2023/07/03 14:54:38;;;;;;;9.48;3.60;;;21.80;96.50;;;;;;7358086;32;20115;-58
2023/07/03 14:58:40;;;;;;;15.85;3.40;;;21.90;96.50;;;;;;7342498;32;20119;-58
2023/07/03 15:02:45;;;;;;;12.02;3.72;;;21.90;97.70;;;;;;7354733;32;20115;-57
2023/07/03 15:06:47;;;;;;;11.05;3.15;;;21.60;96.00;;;;;;7340883;32;20108;-57
2023/07/03 15:10:49;;;;;;;11.43;3.62;;;21.50;97.10;;;;;;7344579;32;20199;-58
2023/07/03 15:14:50;;;;;;;9.30;3.30;;;21.30;95.90;;;;;;7350987;32;20185;-58
2023/07/03 15:18:52;;;;;;;10.38;3.15;;;21.20;96.70;;;;;;7345921;32;20137;-58
2023/07/03 15:22:54;;;;;;;9.60;3.25;;;21.10;98.00;;;;;;7359222;32;20242;-57
2023/07/03 15:26:56;;;;;;;10.25;3.37;;;21.30;97.00;;;;;;7349006;32;20646;-57
2023/07/03 15:31:00;;;;;;;9.13;3.60;;;21.20;98.10;;;;;;7356765;32;20134;-57
2023/07/03 15:35:02;;;;;;;11.60;3.75;;;21.20;97.90;;;;;;7353439;32;20130;-57
2023/07/03 15:39:04;;;;;;;10.60;3.92;;;21.10;97.40;;;;;;7352666;32;20158;-58
2023/07/03 15:43:06;;;;;;;14.43;4.45;;;21.20;98.20;;;;;;7353366;32;20146;-57
2023/07/03 15:47:08;;;;;;;13.57;4.12;;;21.50;98.60;;;;;;7350401;32;20131;-57
2023/07/03 15:51:11;;;;;;;17.27;3.90;;;21.40;97.50;;;;;;7358742;32;20108;-58
2023/07/03 15:55:13;;;;;;;12.70;3.90;;;21.10;98.10;;;;;;7354610;32;20489;-58
2023/07/03 15:59:16;;;;;;;14.48;4.62;;;20.90;97.30;;;;;;7354098;32;20636;-57
2023/07/03 16:03:18;;;;;;;12.10;4.47;;;21.10;98.10;;;;;;7356781;32;20156;-57
2023/07/03 16:07:19;;;;;;;11.65;4.40;;;21.20;98.00;;;;;;7352072;32;20111;-57
2023/07/03 16:11:21;;;;;;;11.35;4.87;;;21.10;98.30;;;;;;7344617;32;20191;-58
2023/07/03 16:15:23;;;;;;;16.02;4.93;;;21.20;98.30;;;;;;7359536;32;20127;-57
2023/07/03 16:19:26;;;;;;;14.77;4.78;;;21.30;98.30;;;;;;7345859;32;20149;-57
2023/07/03 16:23:29;;;;;;;13.00;5.05;;;21.40;97.50;;;;;;7357542;32;20157;-57
2023/07/03 16:27:31;;;;;;;13.38;5.78;;;21.30;97.80;;;;;;7344412;32;20188;-57
2023/07/03 16:31:33;;;;;;;12.45;4.97;;;21.20;96.70;;;;;;7343120;32;20178;-57
2023/07/03 16:35:35;;;;;;;13.65;5.40;;;21.20;98.30;;;;;;7350494;32;20131;-57
2023/07/03 16:39:36;;;;;;;14.75;5.05;;;21.30;97.50;;;;;;7351010;32;20470;-57
2023/07/03 16:43:40;;;;;;;17.17;5.85;;;21.40;98.50;;;;;;7350088;32;20263;-57
2023/07/03 16:47:42;;;;;;;11.35;5.18;;;21.30;96.80;;;;;;7350096;32;20133;-58
2023/07/03 16:51:44;;;;;;;13.13;5.47;;;21.30;97.40;;;;;;7357077;32;20173;-57
2023/07/03 16:55:45;;;;;;;12.52;5.70;;;21.20;97.00;;;;;;7346224;32;20275;-57
2023/07/03 16:59:47;;;;;;;11.48;5.50;;;21.00;97.80;;;;;;7349107;32;20276;-57
2023/07/03 17:03:50;;;;;;;12.82;5.43;;;20.90;98.40;;;;;;7350668;32;20111;-57
2023/07/03 17:07:52;;;;;;;12.13;5.12;;;21.00;98.50;;;;;;7350495;32;20265;-57
2023/07/03 17:11:54;;;;;;;12.30;4.95;;;20.90;98.00;;;;;;7355019;32;20103;-59
2023/07/03 17:15:56;;;;;;;16.35;5.97;;;20.80;97.60;;;;;;7357459;32;20705;-58
2023/07/03 17:19:58;;;;;;;15.00;5.40;;;20.70;97.70;;;;;;7354238;32;20237;-59
2023/07/03 17:24:02;;;;;;;13.60;5.97;;;20.80;98.40;;;;;;7357363;32;20191;-58
2023/07/03 17:28:04;;;;;;;12.82;5.12;;;21.00;97.90;;;;;;7346563;32;20535;-58
2023/07/03 17:32:06;;;;;;;12.35;5.75;;;21.00;97.70;;;;;;7337681;32;20770;-58
2023/07/03 17:36:07;;;;;;;16.37;5.62;;;21.00;98.60;;;;;;7341324;32;20578;-58
2023/07/03 17:40:10;;;;;;;13.10;5.82;;;21.00;97.60;;;;;;7345473;32;20406;-59
2023/07/03 17:44:11;;;;;;;13.60;6.43;;;20.90;96.10;;;;;;7353101;32;20167;-58
2023/07/03 17:48:13;;;;;;;13.95;5.80;;;20.90;96.70;;;;;;7348831;32;20115;-57
2023/07/03 17:52:15;;;;;;;13.77;5.80;;;20.90;96.80;;;;;;7350339;32;20179;-58
2023/07/03 17:56:16;;;;;;;13.75;6.22;;;20.70;96.60;;;;;;7349949;32;20241;-57
2023/07/03 18:00:19;;;;;;;13.98;6.12;;;20.60;97.30;;;;;;7349889;32;20126;-58
2023/07/03 18:04:21;;;;;;;14.85;6.40;;;20.60;98.10;;;;;;7350246;32;20492;-58
2023/07/03 18:08:23;;;;;;;18.98;7.37;;;20.60;98.20;;;;;;7346506;32;20611;-58
2023/07/03 18:12:25;;;;;;;13.13;6.37;;;20.60;97.50;;;;;;7346368;32;20540;-57
2023/07/03 18:16:27;;;;;;;15.90;7.25;;;20.60;97.80;;;;;;7345479;32;20174;-58
2023/07/03 18:20:31;;;;;;;13.90;6.80;;;20.50;98.20;;;;;;7342390;32;20474;-58
2023/07/03 18:24:32;;;;;;;14.38;6.53;;;20.40;99.10;;;;;;7349357;32;20111;-58
2023/07/03 18:28:34;;;;;;;14.55;6.93;;;20.30;99.30;;;;;;7350171;32;20154;-57
2023/07/03 18:32:36;;;;;;;14.15;6.35;;;20.20;99.30;;;;;;7353634;32;20284;-58
2023/07/03 18:36:39;;;;;;;12.23;6.10;;;20.20;99.10;;;;;;7351767;32;20188;-57
2023/07/03 18:40:41;;;;;;;15.38;6.18;;;20.10;99.90;;;;;;7353597;32;20106;-58
2023/07/03 18:44:42;;;;;;;15.10;6.50;;;20.00;99.70;;;;;;7356509;32;20165;-58
2023/07/03 18:48:44;;;;;;;18.05;5.85;;;20.00;99.30;;;;;;7354892;32;20115;-59
2023/07/03 18:52:46;;;;;;;15.07;5.75;;;19.90;99.80;;;;;;7354301;32;20237;-58
2023/07/03 18:56:48;;;;;;;11.82;6.07;;;19.80;99.90;;;;;;7356130;32;20106;-59
2023/07/03 19:00:49;;;;;;;15.93;6.30;;;19.80;99.90;;;;;;7345568;32;20211;-58
2023/07/03 19:04:52;;;;;;;14.80;6.25;;;19.60;99.90;;;;;;7353889;32;20139;-59
2023/07/03 19:08:53;;;;;;;17.00;6.07;;;19.60;99.90;;;;;;7351701;32;20626;-58
2023/07/03 19:12:57;;;;;;;14.63;5.53;;;19.50;99.90;;;;;;7358152;32;20115;-58
2023/07/03 19:16:58;;;;;;;14.52;5.43;;;19.50;99.90;;;;;;7351798;32;20167;-57
2023/07/03 19:21:02;;;;;;;13.35;5.55;;;19.50;99.90;;;;;;7352969;32;20159;-56
2023/07/03 19:25:04;;;;;;;14.93;5.03;;;19.40;99.90;;;;;;7356130;32;20103;-57
2023/07/03 19:29:06;;;;;;;14.57;5.28;;;19.40;99.90;;;;;;7343068;32;20130;-57
2023/07/03 19:33:09;;;;;;;11.18;5.15;;;19.30;99.90;;;;;;7352471;32;20119;-57
2023/07/03 19:37:11;;;;;;;12.77;5.15;;;19.20;99.90;;;;;;7354033;32;20123;-57
2023/07/03 19:41:14;;;;;;;14.55;5.35;;;19.20;99.90;;;;;;7346075;32;20159;-57
2023/07/03 19:45:16;;;;;;;14.68;5.60;;;19.20;99.90;;;;;;7348628;32;20253;-57
2023/07/03 19:49:17;;;;;;;10.18;4.22;;;19.10;99.90;;;;;;7353393;32;20142;-57
2023/07/03 19:53:19;;;;;;;15.82;4.95;;;19.00;99.90;;;;;;7350644;32;20449;-58
2023/07/03 19:57:21;;;;;;;10.60;4.75;;;18.90;99.90;;;;;;7347302;32;20631;-57
2023/07/03 20:01:23;;;;;;;12.37;4.43;;;18.80;99.90;;;;;;7354193;32;20111;-57
2023/07/03 20:05:24;;;;;;;11.20;4.70;;;18.80;99.90;;;;;;7350616;32;20480;-57
2023/07/03 20:09:27;;;;;;;14.27;4.45;;;18.70;99.90;;;;;;7346947;32;20194;-57
2023/07/03 20:13:28;;;;;;;15.60;5.25;;;18.60;99.90;;;;;;7347651;32;20400;-56
2023/07/03 20:17:31;;;;;;;12.40;3.90;;;18.60;99.90;;;;;;7347783;32;20206;-56
2023/07/03 20:21:33;;;;;;;11.23;3.83;;;18.60;99.90;;;;;;7351047;32;20164;-55
2023/07/03 20:25:34;;;;;;;11.60;4.15;;;18.60;99.90;;;;;;7346503;32;20182;-55
2023/07/03 20:29:36;;;;;;;10.00;3.55;;;18.50;99.90;;;;;;7352238;32;20713;-55
2023/07/03 20:33:38;;;;;;;12.23;3.97;;;18.50;99.90;;;;;;7340968;32;20266;-56
2023/07/03 20:37:40;;;;;;;11.05;3.90;;;18.40;99.90;;;;;;7350250;32;20175;-56
2023/07/03 20:41:42;;;;;;;9.60;3.55;;;18.30;99.90;;;;;;7352713;32;20532;-56
2023/07/03 20:45:54;;;;;;;10.93;3.83;;;18.30;99.90;;;;;;7356997;32;20115;-56
2023/07/03 20:49:59;;;;;;;10.77;3.47;;;18.20;99.90;;;;;;7340230;32;20297;-56
2023/07/03 20:57:28;;;;;;;7.65;2.72;;;18.20;99.90;;;;;;7411435;31;20095;-56
2023/07/03 21:01:33;;;;;;;9.65;3.00;;;18.00;99.90;;;;;;7396597;32;20127;-58